Identifiez vous afin de poster une observation
 • Tableaux GEFS v12   

Tableaux GEFS v12 de Températures à 2 mètres (°C)

Run GEFS du 17/01/2022 06Z - Choix du run : 00 - 06 - 12 - 18 Sauver tableau : Conserver cette image

Paramètres : [ Temp. 850hPa ] - [ Temp. 500hPa ] - [ Pression ] - [ Précip. ] - [ Temp. 2m ] - [ Z500 ] - [ CAPE ] -
[ Vent+Direction 10m ] - [ Vent 10m ] - [ Vent Rafales 10m ] - [ Vent+Direction 850hPa ] - [ Vent 850hPa ] - [ Iso 0 ] -
Tri des valeurs : [ Par scénario ] - [ Ascendant ] - [ Descendant ]

Localisation : 42.7N 23.3E

DateEch.
2022-01-17 06Z0-4.4-1.9-1.8-1.8-1.8-1.8-1.8-1.8-1.8-1.7-1.7-1.7-1.7-1.7-1.7-1.6-1.6-1.6-1.6-1.6-1.6-1.6-1.6-1.6-1.6-1.6-1.6-1.5-1.5-1.5-1.5-1.3
2022-01-17 09Z31.71.8222222222.12.12.12.12.12.12.12.12.12.12.12.22.22.22.22.22.22.32.32.32.42.4
2022-01-17 12Z62.12.92.92.92.93.23.23.33.33.33.33.33.33.33.33.43.43.43.43.43.43.43.53.53.53.53.53.63.63.64.14.3
2022-01-17 15Z9-1.3-0.3-0.1-0.1-0.1-0.1000000000000.10.10.10.10.10.10.10.10.10.20.20.20.20.30.3
2022-01-17 18Z12-2.9-2-2-2-1.9-1.9-1.9-1.9-1.9-1.8-1.8-1.8-1.8-1.8-1.8-1.7-1.7-1.7-1.7-1.7-1.7-1.6-1.6-1.6-1.6-1.5-1.5-1.4-1.4-1.4-1-0.8
2022-01-17 21Z15-2.1-1.3-1.3-1.3-1.2-1.2-1.2-1.1-1.1-1.1-1.1-1.1-1.1-1-1-1-1-1-0.9-0.9-0.9-0.9-0.9-0.9-0.8-0.7-0.7-0.7-0.6-0.6-0.5-0.5
2022-01-18 00Z18-2.4-1.8-1.8-1.8-1.7-1.7-1.7-1.7-1.6-1.6-1.6-1.6-1.5-1.5-1.5-1.4-1.4-1.4-1.3-1.3-1.2-1.2-1.2-1.2-1.2-1.1-1.1-1.1-1-0.9-0.8-0.5
2022-01-18 03Z21-3.8-3.7-3.4-3.2-3.2-3.2-3.1-3.1-2.9-2.8-2.7-2.6-2.5-2.4-2.4-2.3-2.3-2.2-2.2-2-2-1.9-1.9-1.8-1.7-1.6-1.6-1.5-1.5-1.5-1.4-1.2
2022-01-18 06Z24-5.9-5.7-5.7-5.7-5.6-5.5-5.4-5.3-5.3-5.2-5.2-5.2-5.1-5.1-5-5-5-4.9-4.9-4.8-4.8-4.8-4.8-4.8-4.7-4.7-4.5-4.3-4.1-4.1-4.1-3.8
2022-01-18 09Z27-3.4-2.6-2.5-2.4-2.4-2.4-2.3-2.2-2.1-2-2-2-1.9-1.9-1.9-1.8-1.8-1.8-1.8-1.8-1.8-1.7-1.6-1.5-1.5-1.5-1.4-1.4-1.2-1.2-1.1-1
2022-01-18 12Z30-2.5-1.5-1.5-1.3-1.2-1.2-1.1-1.1-1.1-1.1-1.1-1-1-1-1-0.9-0.9-0.9-0.8-0.8-0.8-0.8-0.7-0.7-0.7-0.6-0.6-0.6-0.6-0.5-0.4-0.1
2022-01-18 15Z33-4.6-3.9-3.7-3.7-3.6-3.6-3.6-3.6-3.6-3.6-3.5-3.5-3.5-3.5-3.5-3.5-3.4-3.4-3.4-3.3-3.3-3.3-3.3-3.3-3.2-3.2-3.1-3.1-3.1-3.1-2.9-2.8
2022-01-18 18Z36-6.1-5.8-5.5-5.4-5.4-5.3-5.3-5.3-5.2-5.2-5.2-5.2-5.2-5.2-5.2-5.2-5.2-5.1-5.1-5.1-5.1-5.1-5-5-5-4.9-4.9-4.9-4.9-4.9-4.9-4.7
2022-01-18 21Z39-6.7-6-5.8-5.7-5.7-5.7-5.7-5.6-5.6-5.6-5.6-5.6-5.6-5.6-5.5-5.5-5.5-5.5-5.4-5.4-5.4-5.4-5.4-5.4-5.4-5.3-5.3-5.2-5.2-5.1-5-5
2022-01-19 00Z42-7.3-6.4-6.4-6.2-6.2-6.2-6.1-6.1-6.1-6.1-6.1-5.9-5.9-5.9-5.9-5.8-5.8-5.8-5.8-5.8-5.8-5.7-5.7-5.7-5.6-5.6-5.6-5.5-5.5-5.4-5.3-5.2
2022-01-19 03Z45-7.7-6.9-6.8-6.8-6.8-6.8-6.7-6.6-6.6-6.5-6.5-6.5-6.4-6.3-6.3-6.3-6.3-6.2-6.2-6.1-6.1-6.1-6.1-6-6-6-6-6-5.9-5.8-5.7-5.7
2022-01-19 06Z48-7.8-7.3-7.3-7.2-7.2-7.1-7.1-7-7-7-6.9-6.8-6.8-6.8-6.7-6.7-6.6-6.6-6.6-6.6-6.6-6.6-6.4-6.4-6.4-6.4-6.3-6.3-6.3-6.2-6.2-6.2
2022-01-19 09Z51-4-3.8-3.8-3.7-3.6-3.5-3.3-3.2-3.2-3.2-3.2-3.1-3.1-3.1-3-3-3-2.9-2.9-2.7-2.6-2.6-2.5-2.5-2.5-2.5-2.5-2.4-2.4-2.3-2.3-2.1
2022-01-19 12Z54-1.7-1.4-1.4-1.2-1-1-1-0.9-0.8-0.7-0.7-0.7-0.5-0.5-0.5-0.5-0.5-0.4-0.3-0.3-0.2-0.100000000.20.40.6
2022-01-19 15Z57-3.3-3.3-3.1-3.1-2.9-2.5-2.5-2.5-2.4-2.4-2.4-2.3-2.3-2.2-2.2-2.2-2.1-2.1-2.1-2-1.9-1.9-1.8-1.7-1.7-1.7-1.6-1.6-1.5-1.5-1.4-1.2
2022-01-19 18Z60-5.2-5.1-4.7-4.5-4.5-4.1-4-4-3.9-3.9-3.8-3.8-3.8-3.7-3.7-3.7-3.7-3.6-3.6-3.5-3.4-3.4-3.3-3.3-3.2-3.2-3.1-3.1-3.1-3.1-3-2.8
2022-01-19 21Z63-5.3-5.2-4.9-4.8-4.6-4.4-4.3-4.3-4.3-4.2-4.2-4.1-4.1-4.1-4.1-4-4-3.9-3.9-3.9-3.9-3.9-3.8-3.8-3.7-3.6-3.6-3.5-3.5-3.4-3.4-3.2
2022-01-20 00Z66-5.4-5.2-5.2-5-4.7-4.7-4.6-4.6-4.6-4.5-4.5-4.5-4.5-4.4-4.4-4.4-4.4-4.4-4.4-4.3-4.3-4.2-4.2-4.1-4.1-4-3.9-3.9-3.8-3.6-3.6-3.2
2022-01-20 03Z69-5.6-5.6-5.3-5.3-5.2-5.2-5.1-4.9-4.9-4.9-4.9-4.9-4.8-4.8-4.8-4.8-4.8-4.7-4.7-4.7-4.7-4.6-4.5-4.5-4.4-4.4-4.4-4.3-4.1-4-4-3.4
2022-01-20 06Z72-5.9-5.7-5.6-5.6-5.5-5.4-5.4-5.3-5.2-5.2-5.2-5.2-5.2-5.2-5.2-5.1-5.1-5-5-5-4.9-4.9-4.9-4.9-4.8-4.8-4.7-4.5-4.5-4.5-4.4-3.4
2022-01-20 09Z75-1.1-0.8-0.7-0.6-0.5-0.4-0.3-0.3-0.3-0.3-0.3-0.2-0.2-0.2-0.2-0.2-0.2-0.1-0.1-0.1-0.100000.10.20.30.30.40.51.7
2022-01-20 12Z781.922.32.62.82.82.82.82.92.933.13.13.13.13.13.23.23.33.33.33.33.33.43.43.53.63.83.8444.8
2022-01-20 15Z81-1.1-0.100.10.20.20.30.30.40.50.50.50.50.50.60.60.60.60.60.60.70.70.70.80.80.80.91111.21.7
2022-01-20 18Z84-2.4-2.3-2.1-2.1-2-2-1.9-1.9-1.8-1.8-1.8-1.8-1.8-1.7-1.7-1.7-1.7-1.5-1.5-1.5-1.5-1.4-1.4-1.4-1.3-1.3-1.3-1.2-1.2-1.2-1.2-0.9
2022-01-20 21Z87-2.9-2.8-2.8-2.7-2.7-2.6-2.5-2.4-2.4-2.3-2.3-2.2-2.2-2.1-2-1.9-1.9-1.8-1.8-1.7-1.7-1.5-1.5-1.5-1.4-1.4-1.4-1.4-1.4-1.2-0.9-0.4
2022-01-21 00Z90-3.1-3.1-2.9-2.7-2.5-2.5-2.4-2.4-2.3-2.3-2.2-2.2-2.1-2-1.9-1.9-1.8-1.8-1.7-1.6-1.5-1.4-1.4-1.4-1.4-1.4-1.3-1.2-1.2-1-0.8-0.8
2022-01-21 03Z93-3.6-3.5-3.4-3.3-3.1-3.1-3-2.6-2.6-2.5-2.4-2.4-2.2-2.2-2.2-2.1-2.1-2.1-2.1-2.1-2-1.9-1.8-1.8-1.8-1.7-1.7-1.3-1.2-1.1-1-0.4
2022-01-21 06Z96-6.6-6-5.4-5.3-4.8-4.6-4.4-4-3.8-3.8-3.6-3.5-3.4-3.4-3.3-3.3-3-3-2.9-2.8-2.7-2.6-2.5-2.4-2.3-2.3-2.3-2.3-2.2-2.1-1-0.4
2022-01-21 09Z99-7.3-5.7-5.6-4.7-4.5-4.2-4.1-3.9-3.9-3.8-3.7-3.6-3.5-3.3-2.9-2.8-2.8-2.7-2.7-2.6-2.3-2.3-2.3-1.8-1.7-1.5-1.1-1-0.8-0.7-0.4-0.3
2022-01-21 12Z102-7.3-5.5-4.7-4.7-4.5-4.4-4.3-4.2-4.2-4.1-3.9-3.7-3.6-3.5-3.4-3-2.8-2.8-2.8-2.5-2.4-2.2-2.2-2.1-1.4-1.4-0.6-0.5-0.2000.8
2022-01-21 15Z105-7.5-5.9-5.8-5.7-5.6-5.6-5.4-5.1-5.1-5-5-4.9-4.9-4.8-4.6-4.4-4.1-3.9-3.8-3.5-3.5-3.4-3.4-3.3-3.3-2.9-2.8-2.5-2.4-2.2-1.7-1.7
2022-01-21 18Z108-10.6-8.6-7.9-7.4-7.4-7.2-7-6.9-6.7-6.5-6.5-6.3-6.2-5.9-5.8-5.8-5.6-5.6-5.5-5-4.9-4.8-4.7-4.4-4.2-4.1-3.8-3.7-3.6-3.4-3.1-2.7
2022-01-21 21Z111-11.1-9.5-9.3-8.6-8.5-8.5-8.4-7.9-7.9-7.8-7.8-7.8-7.5-7.5-7.3-7.2-6.7-6.4-6.2-5.6-5.6-5.4-5.2-5.2-5.1-5.1-4.8-4.7-4.4-3.7-3.7-3.2
2022-01-22 00Z114-11.9-11.6-10.9-10.3-10.1-9.5-9.4-9.1-9.1-8.6-8.6-8.2-8.2-8-8-8-7.7-7.4-6.7-6.7-6.6-6.6-6.4-6.4-5.8-5.8-5.6-5.5-4.9-4.7-4.7-4.5
2022-01-22 03Z117-12.9-12.5-11.8-11.2-10.9-10.4-10.4-9.8-9.5-9.2-9.2-9.1-9-8.8-8.7-8.5-8.2-8.2-8.1-8-8-7.9-7.2-7.2-6.8-6.6-6.4-6.1-5.8-5.4-5.4-5.2
2022-01-22 06Z120-13.3-12.1-11.9-11.8-11.5-11.3-11.2-10.9-10-9.9-9.9-9.6-9.5-9.4-9.2-8.7-8.6-8.6-8.5-8.5-8.3-8.1-8-7.7-7.6-7.1-6.9-6.9-6.8-6.6-6-5.9
2022-01-22 09Z123-9.1-8.1-7.9-7.8-7.8-7.8-7.7-7.7-7.6-7.3-7.2-7-6.5-6.5-6.3-6.2-6.1-6-6-5.9-5.7-5.5-5.4-5.2-5.1-4.9-4.9-4.8-4.7-4.6-4.5-3.9
2022-01-22 12Z126-7-7-6.9-6.8-6.5-6.4-6.3-6.3-6.3-6.1-5.7-5.6-5.5-5.3-5.3-5.2-5-5-5-5-4.9-4.8-4.4-4.3-4.1-4.1-4.1-4-4-4-3.7-3.6
2022-01-22 15Z129-8.3-7.9-7.7-7.6-7.6-7.5-7.5-7.5-7.4-7.4-7.3-6.9-6.7-6.5-6.5-6.5-6.5-6.4-6.4-6.2-6.1-6.1-6.1-6-5.8-5.8-5.7-5.6-5.4-5.2-5.1-4.8
2022-01-22 18Z132-10.4-10.2-10-9.6-9.5-9.5-9.2-9.1-9-8.7-8.7-8.6-8.5-8.2-8.1-8.1-8-7.7-7.7-7.5-7.5-7.4-7.3-7.2-7.2-6.9-6.9-6.9-6.4-6.3-5.8-5.6
2022-01-22 21Z135-12.6-11.6-11.3-11-10.7-10.6-9.9-9.9-9.9-9.7-9.3-9.3-9.2-9.1-8.9-8.9-8.8-8.1-8-7.8-7.8-7.8-7.7-7.6-7.6-7.5-7.5-7.3-7.2-7-6.3-6.1
2022-01-23 00Z138-14-12.7-11.8-11.6-11.1-11.1-10.9-10.6-10.3-10.1-9.7-9.7-9.6-9.6-9.5-9.3-8.8-8.7-8.6-8.4-8.3-8.3-8.2-8.1-7.9-7.8-7.8-7.7-7.6-7.6-7.4-6.8
2022-01-23 03Z141-14.7-12.6-12.3-12-11.9-11.6-11-10.9-10.8-10.4-10.1-10-9.9-9.8-9.6-9.5-9.5-9.2-9.2-9.1-8.8-8.8-8.7-8.4-8.4-8.3-8-7.9-7.8-7.5-7.5-7.2
2022-01-23 06Z144-14.9-13.1-12.8-11.8-11.8-11.5-11.3-11.1-10.9-10.6-10.5-10.5-10.4-10.2-10-9.9-9.5-9.5-9.2-9.2-9.1-9.1-8.9-8.9-8.6-8.4-8.2-7.8-7.5-7.4-7.3-7
2022-01-23 09Z147-9.3-8.6-8.4-8.3-8.2-8.1-7.9-7.8-7.8-7.4-7.4-7.1-7-6.9-6.8-6.8-6.7-6.5-6.2-6-5.9-5.9-5.9-5.8-5.7-5.7-5.7-5.5-5.4-4.9-4.3-3.4
2022-01-23 12Z150-7.3-7.1-6.8-6.7-6.4-6.4-6.4-6.2-5.9-5.7-5.5-5.5-5.5-5.4-5.3-5-5-5-4.7-4.6-4.6-4.5-4.4-4.1-4-3.8-3.7-3.3-3-3-2.10.1
2022-01-23 15Z153-9.2-8.8-8.6-8.3-8.1-8-7.8-7.3-7-7-7-6.9-6.8-6.5-6.3-6.3-6.3-6.3-6-5.8-5.8-5.6-5.4-5.3-5.3-5.2-5.1-4.2-3.4-3.3-2.6-2.2
2022-01-23 18Z156-12.2-11.6-11.5-11.5-10.8-10.4-10.2-10.1-9.6-8.8-8.7-8.6-8.6-8.1-7.9-7.9-7.8-7.7-7.7-7.6-7.5-7.1-7-6.7-6.7-6.6-6.6-6.1-5-4.6-4-2.5
2022-01-23 21Z159-13.6-12.4-11.9-11.7-11.4-11.3-10.2-10.2-9.9-9.9-9.5-9.2-9.1-8.9-8.7-8.7-8.4-8.2-8.1-8-8-7.6-7.6-7.6-7.4-7.4-7.1-6.9-6.4-5.4-3.8-3
2022-01-24 00Z162-14.7-13.4-12.7-12-11.7-11.5-11.4-11-10.5-10.4-9.9-9.8-9.6-9.5-9.5-9.2-9-8.7-8.5-8.5-8.4-8.4-8.1-8.1-8.1-7.9-7.7-7.4-6.8-6.7-3.3-2.7
2022-01-24 03Z165-15.4-13.4-13.1-12.4-12.2-11.9-11.7-11-10.5-10.3-10.3-10.2-10.1-9.9-9.9-9.8-9.7-9.4-9.2-9.2-9.2-9-8.8-8.6-8.5-8.4-7.6-7.2-7.2-6.3-3.4-2.5
2022-01-24 06Z168-15.5-13.3-12.4-12.2-12.1-11.9-11.8-11.4-11.3-11-10.7-10.6-10.5-10.4-10.3-10.2-10-10-9.9-9.5-9.4-9.2-9.2-9.1-9-9-8.7-7.2-7.2-4.4-3.3-2.3
2022-01-24 09Z171-7.9-7.9-7.8-7.7-7.6-7.5-7.5-7.5-7.5-7.4-7.3-7.2-7.1-7.1-7.1-6.9-6.7-6.5-6.4-6.4-6.4-5.9-5.8-5.7-5.3-5.2-4.6-4.5-2.1-1.1-0.61.3
2022-01-24 12Z174-7.2-6.7-6.5-6.4-6.1-6-5.9-5.9-5.8-5.4-5.3-5.2-5.2-5.2-4.9-4.9-4.8-4.6-4.6-4.6-4-3.7-3.6-3.6-3.6-1.7-1.5-1.3-0.50.20.24.7
2022-01-24 15Z177-8.6-8.3-8.3-8-8-7.8-7.8-7.6-7.3-7.2-7.2-6.9-6.6-6.3-6.3-6.3-6.3-6.1-5.8-5.7-5.6-5.3-5.2-5.1-4.6-4-3.2-3.1-1.3-1.3-11.6
2022-01-24 18Z180-12.7-11.6-11.4-11.3-10.6-9.7-9.7-9.6-9.6-9.6-9.3-9.1-8.8-8.3-8.3-8-8-8-8-7.9-7.5-7.4-7.3-7.1-6.7-6.1-5.6-5.4-3.9-3.2-2-1
2022-01-24 21Z183-13.4-12.5-11.9-11.8-11.5-11-10.7-10.6-10.2-10.1-9.9-9.6-9.5-9.4-9.4-8.9-8.5-8.4-8.3-8.2-8.2-8.1-8-7.1-6.3-6.3-5.9-5.7-4.4-4.2-3.2-2
2022-01-25 00Z186-13.4-13.2-13-12-12-11.9-11.5-11.5-11.4-10.7-10.6-10.2-10.2-9.9-9.9-9.8-9.5-9.2-9-8.7-8.6-8.4-8.4-8.1-6.5-6.4-5.9-5.6-4.6-4.4-2.3-1.8
2022-01-25 03Z189-14.3-14.1-14-13.4-12.3-12.1-12.1-11.8-11.5-11.2-10.8-10.6-10.4-10.4-10.3-10-10-9.4-9-8.8-8.7-8.5-8.1-7-6.5-6.5-5.6-5.5-5.4-4.3-2-1.6
2022-01-25 06Z192-14.7-14.4-14.4-12.7-12.4-12.3-11.9-11.5-11.4-11.2-10.9-10.7-10.5-10.5-10.4-9.9-9.8-9.4-9.3-9.2-8.9-8.7-8-6.9-6.4-6-5.6-5.5-5.3-4.1-3.8-1.9

Retour à la carte

Meteociel™ | © 2004 - 2022 | Forums Météo | Prévi Paris | Paramètres des cookies | Cookies | Média - Meteociel | Mentions légales | Contact